sensor_id;sensor_type;location;lat;lon;timestamp;P1;durP1;ratioP1;P2;durP2;ratioP2
29854;SDS011;16733;48.738;9.106;2023-12-07T00:01:40;10.07;;;3.60;;
29854;SDS011;16733;48.738;9.106;2023-12-07T00:04:06;5.70;;;3.15;;
29854;SDS011;16733;48.738;9.106;2023-12-07T00:06:32;9.90;;;3.55;;
29854;SDS011;16733;48.738;9.106;2023-12-07T00:08:58;5.45;;;3.30;;
29854;SDS011;16733;48.738;9.106;2023-12-07T00:11:26;5.40;;;3.10;;
29854;SDS011;16733;48.738;9.106;2023-12-07T00:13:52;5.45;;;3.42;;
29854;SDS011;16733;48.738;9.106;2023-12-07T00:16:18;4.38;;;3.15;;
29854;SDS011;16733;48.738;9.106;2023-12-07T00:18:44;6.13;;;2.55;;
29854;SDS011;16733;48.738;9.106;2023-12-07T00:21:10;7.88;;;3.65;;
29854;SDS011;16733;48.738;9.106;2023-12-07T00:23:36;4.00;;;2.75;;
29854;SDS011;16733;48.738;9.106;2023-12-07T00:26:03;5.53;;;2.50;;
29854;SDS011;16733;48.738;9.106;2023-12-07T00:28:29;5.82;;;3.20;;
29854;SDS011;16733;48.738;9.106;2023-12-07T00:30:55;5.32;;;3.10;;
29854;SDS011;16733;48.738;9.106;2023-12-07T00:33:21;6.18;;;3.25;;
29854;SDS011;16733;48.738;9.106;2023-12-07T00:35:48;9.15;;;3.58;;
29854;SDS011;16733;48.738;9.106;2023-12-07T00:38:14;5.78;;;3.45;;
29854;SDS011;16733;48.738;9.106;2023-12-07T00:40:39;6.63;;;3.88;;
29854;SDS011;16733;48.738;9.106;2023-12-07T00:43:06;5.22;;;3.28;;
29854;SDS011;16733;48.738;9.106;2023-12-07T00:45:32;7.30;;;3.15;;
29854;SDS011;16733;48.738;9.106;2023-12-07T00:47:59;13.35;;;3.70;;
29854;SDS011;16733;48.738;9.106;2023-12-07T00:50:25;5.28;;;2.78;;
29854;SDS011;16733;48.738;9.106;2023-12-07T00:52:51;4.40;;;2.85;;
29854;SDS011;16733;48.738;9.106;2023-12-07T00:55:17;6.88;;;3.08;;
29854;SDS011;16733;48.738;9.106;2023-12-07T00:57:43;6.72;;;3.15;;
29854;SDS011;16733;48.738;9.106;2023-12-07T01:00:09;4.97;;;2.63;;
29854;SDS011;16733;48.738;9.106;2023-12-07T01:02:35;3.72;;;2.58;;
29854;SDS011;16733;48.738;9.106;2023-12-07T01:05:01;5.90;;;2.70;;
29854;SDS011;16733;48.738;9.106;2023-12-07T01:07:27;4.88;;;2.88;;
29854;SDS011;16733;48.738;9.106;2023-12-07T01:09:53;3.75;;;2.65;;
29854;SDS011;16733;48.738;9.106;2023-12-07T01:12:19;6.70;;;3.35;;
29854;SDS011;16733;48.738;9.106;2023-12-07T01:14:45;4.45;;;2.78;;
29854;SDS011;16733;48.738;9.106;2023-12-07T01:17:12;6.00;;;2.97;;
29854;SDS011;16733;48.738;9.106;2023-12-07T01:19:38;6.18;;;3.20;;
29854;SDS011;16733;48.738;9.106;2023-12-07T01:22:04;6.30;;;2.92;;
29854;SDS011;16733;48.738;9.106;2023-12-07T01:24:30;5.25;;;2.72;;
29854;SDS011;16733;48.738;9.106;2023-12-07T01:26:56;6.07;;;2.97;;
29854;SDS011;16733;48.738;9.106;2023-12-07T01:29:22;7.40;;;2.53;;
29854;SDS011;16733;48.738;9.106;2023-12-07T01:31:48;6.10;;;2.55;;
29854;SDS011;16733;48.738;9.106;2023-12-07T01:34:14;5.93;;;2.53;;
29854;SDS011;16733;48.738;9.106;2023-12-07T01:36:40;5.07;;;2.72;;
29854;SDS011;16733;48.738;9.106;2023-12-07T01:39:06;5.00;;;2.45;;
29854;SDS011;16733;48.738;9.106;2023-12-07T01:41:33;5.03;;;3.08;;
29854;SDS011;16733;48.738;9.106;2023-12-07T01:44:02;4.15;;;2.55;;
29854;SDS011;16733;48.738;9.106;2023-12-07T01:46:28;6.30;;;3.22;;
29854;SDS011;16733;48.738;9.106;2023-12-07T01:48:55;3.85;;;2.00;;
29854;SDS011;16733;48.738;9.106;2023-12-07T01:51:21;9.43;;;3.35;;
29854;SDS011;16733;48.738;9.106;2023-12-07T01:53:47;5.03;;;2.92;;
29854;SDS011;16733;48.738;9.106;2023-12-07T01:56:14;6.95;;;3.03;;
29854;SDS011;16733;48.738;9.106;2023-12-07T01:58:41;4.72;;;2.42;;
29854;SDS011;16733;48.738;9.106;2023-12-07T02:01:07;6.75;;;3.17;;
29854;SDS011;16733;48.738;9.106;2023-12-07T02:03:34;3.42;;;2.45;;
29854;SDS011;16733;48.738;9.106;2023-12-07T02:06:00;4.05;;;2.60;;
29854;SDS011;16733;48.738;9.106;2023-12-07T02:08:27;5.50;;;3.22;;
29854;SDS011;16733;48.738;9.106;2023-12-07T02:10:53;4.43;;;2.42;;
29854;SDS011;16733;48.738;9.106;2023-12-07T02:13:22;3.92;;;2.22;;
29854;SDS011;16733;48.738;9.106;2023-12-07T02:15:48;5.85;;;2.55;;
29854;SDS011;16733;48.738;9.106;2023-12-07T02:18:25;3.78;;;2.13;;
29854;SDS011;16733;48.738;9.106;2023-12-07T02:23:19;5.22;;;3.10;;
29854;SDS011;16733;48.738;9.106;2023-12-07T02:28:14;6.43;;;2.53;;
29854;SDS011;16733;48.738;9.106;2023-12-07T02:30:40;8.35;;;3.03;;
29854;SDS011;16733;48.738;9.106;2023-12-07T02:33:06;3.95;;;2.50;;
29854;SDS011;16733;48.738;9.106;2023-12-07T02:35:32;5.40;;;2.85;;
29854;SDS011;16733;48.738;9.106;2023-12-07T02:37:58;8.82;;;2.72;;
29854;SDS011;16733;48.738;9.106;2023-12-07T02:40:26;6.03;;;3.08;;
29854;SDS011;16733;48.738;9.106;2023-12-07T02:42:53;4.25;;;2.75;;
29854;SDS011;16733;48.738;9.106;2023-12-07T02:45:20;5.28;;;2.60;;
29854;SDS011;16733;48.738;9.106;2023-12-07T02:47:46;6.00;;;2.60;;
29854;SDS011;16733;48.738;9.106;2023-12-07T02:50:12;6.65;;;3.05;;
29854;SDS011;16733;48.738;9.106;2023-12-07T02:52:39;8.77;;;3.45;;
29854;SDS011;16733;48.738;9.106;2023-12-07T02:55:05;6.28;;;2.97;;
29854;SDS011;16733;48.738;9.106;2023-12-07T02:57:31;8.27;;;3.63;;
29854;SDS011;16733;48.738;9.106;2023-12-07T02:59:58;6.57;;;3.00;;
29854;SDS011;16733;48.738;9.106;2023-12-07T03:02:25;6.57;;;3.80;;
29854;SDS011;16733;48.738;9.106;2023-12-07T03:04:51;7.38;;;3.97;;
29854;SDS011;16733;48.738;9.106;2023-12-07T03:07:17;9.65;;;3.78;;
29854;SDS011;16733;48.738;9.106;2023-12-07T03:09:43;7.30;;;4.45;;
29854;SDS011;16733;48.738;9.106;2023-12-07T03:12:09;11.52;;;3.25;;
29854;SDS011;16733;48.738;9.106;2023-12-07T03:14:35;6.68;;;3.25;;
29854;SDS011;16733;48.738;9.106;2023-12-07T03:17:01;10.98;;;4.70;;
29854;SDS011;16733;48.738;9.106;2023-12-07T03:19:27;6.53;;;3.47;;
29854;SDS011;16733;48.738;9.106;2023-12-07T03:21:53;11.95;;;4.00;;
29854;SDS011;16733;48.738;9.106;2023-12-07T03:24:19;5.65;;;3.03;;
29854;SDS011;16733;48.738;9.106;2023-12-07T03:26:45;7.47;;;3.42;;
29854;SDS011;16733;48.738;9.106;2023-12-07T03:29:11;9.93;;;3.33;;
29854;SDS011;16733;48.738;9.106;2023-12-07T03:31:37;10.00;;;4.03;;
29854;SDS011;16733;48.738;9.106;2023-12-07T03:34:03;7.97;;;3.42;;
29854;SDS011;16733;48.738;9.106;2023-12-07T03:36:30;4.45;;;2.65;;
29854;SDS011;16733;48.738;9.106;2023-12-07T03:38:56;11.32;;;4.35;;
29854;SDS011;16733;48.738;9.106;2023-12-07T03:41:22;9.63;;;3.80;;
29854;SDS011;16733;48.738;9.106;2023-12-07T03:43:48;6.70;;;3.50;;
29854;SDS011;16733;48.738;9.106;2023-12-07T03:46:14;4.45;;;3.22;;
29854;SDS011;16733;48.738;9.106;2023-12-07T03:48:41;4.53;;;2.70;;
29854;SDS011;16733;48.738;9.106;2023-12-07T03:51:07;4.75;;;2.65;;
29854;SDS011;16733;48.738;9.106;2023-12-07T03:53:33;5.88;;;3.33;;
29854;SDS011;16733;48.738;9.106;2023-12-07T03:55:59;5.43;;;2.78;;
29854;SDS011;16733;48.738;9.106;2023-12-07T03:58:25;13.20;;;3.53;;
29854;SDS011;16733;48.738;9.106;2023-12-07T04:00:51;4.25;;;3.17;;
29854;SDS011;16733;48.738;9.106;2023-12-07T04:03:17;4.90;;;2.88;;
29854;SDS011;16733;48.738;9.106;2023-12-07T04:05:43;5.32;;;2.90;;
29854;SDS011;16733;48.738;9.106;2023-12-07T04:08:09;7.88;;;2.75;;
29854;SDS011;16733;48.738;9.106;2023-12-07T04:10:35;4.30;;;2.67;;
29854;SDS011;16733;48.738;9.106;2023-12-07T04:13:02;5.00;;;2.50;;
29854;SDS011;16733;48.738;9.106;2023-12-07T04:15:28;4.55;;;2.85;;
29854;SDS011;16733;48.738;9.106;2023-12-07T04:17:54;5.00;;;2.67;;
29854;SDS011;16733;48.738;9.106;2023-12-07T04:20:20;9.10;;;3.83;;
29854;SDS011;16733;48.738;9.106;2023-12-07T04:22:46;4.97;;;3.15;;
29854;SDS011;16733;48.738;9.106;2023-12-07T04:25:12;5.47;;;3.13;;
29854;SDS011;16733;48.738;9.106;2023-12-07T04:27:38;4.75;;;2.78;;
29854;SDS011;16733;48.738;9.106;2023-12-07T04:30:04;4.47;;;2.80;;
29854;SDS011;16733;48.738;9.106;2023-12-07T04:32:31;5.53;;;3.03;;
29854;SDS011;16733;48.738;9.106;2023-12-07T04:34:57;5.25;;;3.13;;
29854;SDS011;16733;48.738;9.106;2023-12-07T04:37:23;5.50;;;3.10;;
29854;SDS011;16733;48.738;9.106;2023-12-07T04:39:49;6.50;;;3.38;;
29854;SDS011;16733;48.738;9.106;2023-12-07T04:42:15;5.82;;;2.58;;
29854;SDS011;16733;48.738;9.106;2023-12-07T04:44:41;5.32;;;2.58;;
29854;SDS011;16733;48.738;9.106;2023-12-07T04:47:07;4.90;;;2.67;;
29854;SDS011;16733;48.738;9.106;2023-12-07T04:49:33;5.15;;;2.85;;
29854;SDS011;16733;48.738;9.106;2023-12-07T04:51:59;8.15;;;3.30;;
29854;SDS011;16733;48.738;9.106;2023-12-07T04:54:25;5.78;;;2.85;;
29854;SDS011;16733;48.738;9.106;2023-12-07T04:56:52;6.90;;;3.10;;
29854;SDS011;16733;48.738;9.106;2023-12-07T04:59:19;5.68;;;2.97;;
29854;SDS011;16733;48.738;9.106;2023-12-07T05:01:45;7.88;;;2.55;;
29854;SDS011;16733;48.738;9.106;2023-12-07T05:04:12;4.80;;;2.65;;
29854;SDS011;16733;48.738;9.106;2023-12-07T05:06:38;5.93;;;3.25;;
29854;SDS011;16733;48.738;9.106;2023-12-07T05:09:04;6.00;;;2.65;;
29854;SDS011;16733;48.738;9.106;2023-12-07T05:11:31;4.25;;;2.90;;
29854;SDS011;16733;48.738;9.106;2023-12-07T05:13:57;6.57;;;3.17;;
29854;SDS011;16733;48.738;9.106;2023-12-07T05:16:23;9.52;;;3.00;;
29854;SDS011;16733;48.738;9.106;2023-12-07T05:18:49;9.95;;;2.97;;
29854;SDS011;16733;48.738;9.106;2023-12-07T05:21:15;4.30;;;2.58;;
29854;SDS011;16733;48.738;9.106;2023-12-07T05:23:41;5.03;;;2.95;;
29854;SDS011;16733;48.738;9.106;2023-12-07T05:26:06;5.40;;;2.95;;
29854;SDS011;16733;48.738;9.106;2023-12-07T05:28:33;3.42;;;2.55;;
29854;SDS011;16733;48.738;9.106;2023-12-07T05:30:59;4.57;;;3.03;;
29854;SDS011;16733;48.738;9.106;2023-12-07T05:33:25;4.70;;;2.67;;
29854;SDS011;16733;48.738;9.106;2023-12-07T05:35:51;5.07;;;2.78;;
29854;SDS011;16733;48.738;9.106;2023-12-07T05:38:17;6.90;;;3.05;;
29854;SDS011;16733;48.738;9.106;2023-12-07T05:40:43;5.20;;;3.17;;
29854;SDS011;16733;48.738;9.106;2023-12-07T05:43:08;8.32;;;3.00;;
29854;SDS011;16733;48.738;9.106;2023-12-07T05:45:35;6.30;;;2.70;;
29854;SDS011;16733;48.738;9.106;2023-12-07T05:48:01;9.98;;;3.45;;
29854;SDS011;16733;48.738;9.106;2023-12-07T05:50:27;8.05;;;3.85;;
29854;SDS011;16733;48.738;9.106;2023-12-07T05:52:53;6.20;;;2.75;;
29854;SDS011;16733;48.738;9.106;2023-12-07T05:55:20;6.38;;;3.03;;
29854;SDS011;16733;48.738;9.106;2023-12-07T05:57:46;5.32;;;2.75;;
29854;SDS011;16733;48.738;9.106;2023-12-07T06:00:12;5.28;;;3.25;;
29854;SDS011;16733;48.738;9.106;2023-12-07T06:02:38;5.47;;;3.38;;
29854;SDS011;16733;48.738;9.106;2023-12-07T06:05:05;4.20;;;2.63;;
29854;SDS011;16733;48.738;9.106;2023-12-07T06:07:31;5.35;;;3.05;;
29854;SDS011;16733;48.738;9.106;2023-12-07T06:09:58;4.55;;;3.13;;
29854;SDS011;16733;48.738;9.106;2023-12-07T06:12:24;4.68;;;3.42;;
29854;SDS011;16733;48.738;9.106;2023-12-07T06:14:50;9.18;;;4.00;;
29854;SDS011;16733;48.738;9.106;2023-12-07T06:17:16;4.22;;;2.67;;
29854;SDS011;16733;48.738;9.106;2023-12-07T06:19:42;4.38;;;2.92;;
29854;SDS011;16733;48.738;9.106;2023-12-07T06:22:09;4.70;;;3.33;;
29854;SDS011;16733;48.738;9.106;2023-12-07T06:24:35;4.85;;;2.85;;
29854;SDS011;16733;48.738;9.106;2023-12-07T06:27:01;5.78;;;3.40;;
29854;SDS011;16733;48.738;9.106;2023-12-07T06:29:28;7.30;;;2.97;;
29854;SDS011;16733;48.738;9.106;2023-12-07T06:31:56;4.75;;;2.90;;
29854;SDS011;16733;48.738;9.106;2023-12-07T06:34:22;6.22;;;3.08;;
29854;SDS011;16733;48.738;9.106;2023-12-07T06:36:48;5.72;;;2.90;;
29854;SDS011;16733;48.738;9.106;2023-12-07T06:39:14;3.67;;;2.35;;
29854;SDS011;16733;48.738;9.106;2023-12-07T06:41:40;3.80;;;2.47;;
29854;SDS011;16733;48.738;9.106;2023-12-07T06:44:06;5.78;;;2.72;;
29854;SDS011;16733;48.738;9.106;2023-12-07T06:46:33;4.55;;;2.95;;
29854;SDS011;16733;48.738;9.106;2023-12-07T06:48:59;5.15;;;2.85;;
29854;SDS011;16733;48.738;9.106;2023-12-07T06:51:25;4.90;;;2.70;;
29854;SDS011;16733;48.738;9.106;2023-12-07T06:53:51;5.82;;;3.15;;
29854;SDS011;16733;48.738;9.106;2023-12-07T06:56:17;4.97;;;2.50;;
29854;SDS011;16733;48.738;9.106;2023-12-07T06:58:43;9.10;;;5.18;;
29854;SDS011;16733;48.738;9.106;2023-12-07T07:01:09;8.73;;;4.47;;
29854;SDS011;16733;48.738;9.106;2023-12-07T07:03:35;10.57;;;4.88;;
29854;SDS011;16733;48.738;9.106;2023-12-07T07:06:01;12.48;;;5.85;;
29854;SDS011;16733;48.738;9.106;2023-12-07T07:08:27;9.52;;;5.00;;
29854;SDS011;16733;48.738;9.106;2023-12-07T07:10:53;10.52;;;6.13;;
29854;SDS011;16733;48.738;9.106;2023-12-07T07:13:19;10.13;;;5.43;;
29854;SDS011;16733;48.738;9.106;2023-12-07T07:15:45;7.45;;;4.07;;
29854;SDS011;16733;48.738;9.106;2023-12-07T07:18:13;8.73;;;4.47;;
29854;SDS011;16733;48.738;9.106;2023-12-07T07:20:39;10.73;;;5.60;;
29854;SDS011;16733;48.738;9.106;2023-12-07T07:23:05;10.18;;;6.18;;
29854;SDS011;16733;48.738;9.106;2023-12-07T07:25:33;9.55;;;5.30;;
29854;SDS011;16733;48.738;9.106;2023-12-07T07:27:59;5.70;;;3.80;;
29854;SDS011;16733;48.738;9.106;2023-12-07T07:30:25;10.55;;;4.57;;
29854;SDS011;16733;48.738;9.106;2023-12-07T07:32:51;10.18;;;5.13;;
29854;SDS011;16733;48.738;9.106;2023-12-07T07:35:17;8.85;;;4.70;;
29854;SDS011;16733;48.738;9.106;2023-12-07T07:37:43;11.02;;;5.25;;
29854;SDS011;16733;48.738;9.106;2023-12-07T07:40:09;7.82;;;4.38;;
29854;SDS011;16733;48.738;9.106;2023-12-07T07:42:39;8.38;;;5.22;;
29854;SDS011;16733;48.738;9.106;2023-12-07T07:45:09;8.52;;;5.28;;
29854;SDS011;16733;48.738;9.106;2023-12-07T07:47:35;10.70;;;5.10;;
29854;SDS011;16733;48.738;9.106;2023-12-07T07:50:02;9.48;;;4.88;;
29854;SDS011;16733;48.738;9.106;2023-12-07T07:52:31;12.98;;;6.07;;
29854;SDS011;16733;48.738;9.106;2023-12-07T07:54:58;6.68;;;3.95;;
29854;SDS011;16733;48.738;9.106;2023-12-07T07:57:24;10.70;;;5.13;;
29854;SDS011;16733;48.738;9.106;2023-12-07T07:59:50;10.52;;;5.38;;
29854;SDS011;16733;48.738;9.106;2023-12-07T08:02:16;9.50;;;4.60;;
29854;SDS011;16733;48.738;9.106;2023-12-07T08:04:42;13.27;;;4.40;;
29854;SDS011;16733;48.738;9.106;2023-12-07T08:07:08;12.70;;;4.72;;
29854;SDS011;16733;48.738;9.106;2023-12-07T08:09:36;6.75;;;3.60;;
29854;SDS011;16733;48.738;9.106;2023-12-07T08:12:02;8.65;;;3.97;;
29854;SDS011;16733;48.738;9.106;2023-12-07T08:14:28;8.30;;;3.90;;
29854;SDS011;16733;48.738;9.106;2023-12-07T08:16:54;6.53;;;3.83;;
29854;SDS011;16733;48.738;9.106;2023-12-07T08:19:20;7.75;;;3.65;;
29854;SDS011;16733;48.738;9.106;2023-12-07T08:21:46;6.68;;;3.97;;
29854;SDS011;16733;48.738;9.106;2023-12-07T08:24:12;7.93;;;3.70;;
29854;SDS011;16733;48.738;9.106;2023-12-07T08:26:38;8.45;;;3.58;;
29854;SDS011;16733;48.738;9.106;2023-12-07T08:29:04;7.93;;;2.70;;
29854;SDS011;16733;48.738;9.106;2023-12-07T08:31:31;6.40;;;3.05;;
29854;SDS011;16733;48.738;9.106;2023-12-07T08:33:57;6.90;;;3.95;;
29854;SDS011;16733;48.738;9.106;2023-12-07T08:36:23;4.65;;;2.85;;
29854;SDS011;16733;48.738;9.106;2023-12-07T08:38:50;5.88;;;3.40;;
29854;SDS011;16733;48.738;9.106;2023-12-07T08:41:17;6.18;;;3.15;;
29854;SDS011;16733;48.738;9.106;2023-12-07T08:43:43;5.10;;;2.88;;
29854;SDS011;16733;48.738;9.106;2023-12-07T08:46:09;6.72;;;3.33;;
29854;SDS011;16733;48.738;9.106;2023-12-07T08:48:38;5.22;;;3.65;;
29854;SDS011;16733;48.738;9.106;2023-12-07T08:51:04;9.07;;;3.67;;
29854;SDS011;16733;48.738;9.106;2023-12-07T08:53:30;15.15;;;3.50;;
29854;SDS011;16733;48.738;9.106;2023-12-07T08:55:56;9.52;;;3.22;;
29854;SDS011;16733;48.738;9.106;2023-12-07T08:58:22;7.18;;;2.92;;
29854;SDS011;16733;48.738;9.106;2023-12-07T09:00:48;6.43;;;2.78;;
29854;SDS011;16733;48.738;9.106;2023-12-07T09:03:15;6.68;;;3.28;;
29854;SDS011;16733;48.738;9.106;2023-12-07T09:05:41;6.90;;;3.38;;
29854;SDS011;16733;48.738;9.106;2023-12-07T09:08:08;6.65;;;2.88;;
29854;SDS011;16733;48.738;9.106;2023-12-07T09:10:35;9.15;;;3.10;;
29854;SDS011;16733;48.738;9.106;2023-12-07T09:13:01;6.28;;;2.55;;
29854;SDS011;16733;48.738;9.106;2023-12-07T09:15:27;6.72;;;3.13;;
29854;SDS011;16733;48.738;9.106;2023-12-07T09:17:54;8.68;;;2.42;;
29854;SDS011;16733;48.738;9.106;2023-12-07T09:20:20;6.05;;;2.50;;
29854;SDS011;16733;48.738;9.106;2023-12-07T09:22:46;6.32;;;2.83;;
29854;SDS011;16733;48.738;9.106;2023-12-07T09:25:13;4.72;;;2.72;;
29854;SDS011;16733;48.738;9.106;2023-12-07T09:27:40;4.32;;;2.72;;
29854;SDS011;16733;48.738;9.106;2023-12-07T09:30:07;4.53;;;2.72;;
29854;SDS011;16733;48.738;9.106;2023-12-07T09:32:36;6.32;;;2.65;;
29854;SDS011;16733;48.738;9.106;2023-12-07T09:35:06;5.95;;;3.17;;
29854;SDS011;16733;48.738;9.106;2023-12-07T09:37:33;4.38;;;3.35;;
29854;SDS011;16733;48.738;9.106;2023-12-07T09:39:59;5.38;;;2.70;;
29854;SDS011;16733;48.738;9.106;2023-12-07T09:42:25;4.22;;;2.58;;
29854;SDS011;16733;48.738;9.106;2023-12-07T09:44:52;5.53;;;2.85;;
29854;SDS011;16733;48.738;9.106;2023-12-07T09:47:18;6.80;;;2.88;;
29854;SDS011;16733;48.738;9.106;2023-12-07T09:49:44;4.97;;;3.28;;
29854;SDS011;16733;48.738;9.106;2023-12-07T09:52:10;5.55;;;3.13;;
29854;SDS011;16733;48.738;9.106;2023-12-07T09:54:40;3.53;;;2.70;;
29854;SDS011;16733;48.738;9.106;2023-12-07T09:57:06;4.53;;;2.67;;
29854;SDS011;16733;48.738;9.106;2023-12-07T09:59:34;5.57;;;2.83;;
29854;SDS011;16733;48.738;9.106;2023-12-07T10:02:01;5.38;;;2.63;;
29854;SDS011;16733;48.738;9.106;2023-12-07T10:04:27;4.15;;;2.75;;
29854;SDS011;16733;48.738;9.106;2023-12-07T10:06:53;6.47;;;2.28;;
29854;SDS011;16733;48.738;9.106;2023-12-07T10:09:19;5.82;;;2.72;;
29854;SDS011;16733;48.738;9.106;2023-12-07T10:11:49;5.22;;;2.88;;
29854;SDS011;16733;48.738;9.106;2023-12-07T10:14:15;8.50;;;4.07;;
29854;SDS011;16733;48.738;9.106;2023-12-07T10:16:59;14.15;;;3.38;;
29854;SDS011;16733;48.738;9.106;2023-12-07T10:19:25;5.72;;;3.03;;
29854;SDS011;16733;48.738;9.106;2023-12-07T10:21:52;7.90;;;3.58;;
29854;SDS011;16733;48.738;9.106;2023-12-07T10:24:22;6.00;;;3.08;;
29854;SDS011;16733;48.738;9.106;2023-12-07T10:26:49;5.43;;;3.53;;
29854;SDS011;16733;48.738;9.106;2023-12-07T10:29:18;4.45;;;2.97;;
29854;SDS011;16733;48.738;9.106;2023-12-07T10:31:48;5.45;;;3.38;;
29854;SDS011;16733;48.738;9.106;2023-12-07T10:34:17;4.43;;;2.80;;
29854;SDS011;16733;48.738;9.106;2023-12-07T10:36:46;4.85;;;2.88;;
29854;SDS011;16733;48.738;9.106;2023-12-07T10:39:13;8.07;;;3.05;;
29854;SDS011;16733;48.738;9.106;2023-12-07T10:41:39;12.77;;;3.05;;
29854;SDS011;16733;48.738;9.106;2023-12-07T10:44:09;6.80;;;2.90;;
29854;SDS011;16733;48.738;9.106;2023-12-07T10:46:37;6.47;;;3.40;;
29854;SDS011;16733;48.738;9.106;2023-12-07T10:49:07;7.00;;;3.90;;
29854;SDS011;16733;48.738;9.106;2023-12-07T10:51:46;9.13;;;4.28;;
29854;SDS011;16733;48.738;9.106;2023-12-07T10:54:16;11.03;;;4.03;;
29854;SDS011;16733;48.738;9.106;2023-12-07T10:56:44;6.45;;;3.75;;
29854;SDS011;16733;48.738;9.106;2023-12-07T10:59:10;5.78;;;3.15;;
29854;SDS011;16733;48.738;9.106;2023-12-07T11:01:40;4.97;;;2.17;;
29854;SDS011;16733;48.738;9.106;2023-12-07T11:04:07;5.13;;;3.35;;
29854;SDS011;16733;48.738;9.106;2023-12-07T11:06:34;6.53;;;3.90;;
29854;SDS011;16733;48.738;9.106;2023-12-07T11:09:01;11.52;;;3.53;;
29854;SDS011;16733;48.738;9.106;2023-12-07T11:11:29;3.67;;;2.65;;
29854;SDS011;16733;48.738;9.106;2023-12-07T11:13:58;4.68;;;2.97;;
29854;SDS011;16733;48.738;9.106;2023-12-07T11:16:28;6.45;;;2.58;;
29854;SDS011;16733;48.738;9.106;2023-12-07T11:18:54;7.13;;;2.45;;
29854;SDS011;16733;48.738;9.106;2023-12-07T11:21:20;6.25;;;3.05;;
29854;SDS011;16733;48.738;9.106;2023-12-07T11:23:47;8.13;;;3.50;;
29854;SDS011;16733;48.738;9.106;2023-12-07T11:26:13;4.30;;;2.83;;
29854;SDS011;16733;48.738;9.106;2023-12-07T11:28:39;4.93;;;2.53;;
29854;SDS011;16733;48.738;9.106;2023-12-07T11:31:08;4.18;;;2.22;;
29854;SDS011;16733;48.738;9.106;2023-12-07T11:33:37;11.32;;;2.53;;
29854;SDS011;16733;48.738;9.106;2023-12-07T11:36:04;3.65;;;2.30;;
29854;SDS011;16733;48.738;9.106;2023-12-07T11:38:31;2.97;;;2.17;;
29854;SDS011;16733;48.738;9.106;2023-12-07T11:40:57;4.03;;;2.47;;
29854;SDS011;16733;48.738;9.106;2023-12-07T11:45:58;5.40;;;2.30;;
29854;SDS011;16733;48.738;9.106;2023-12-07T11:48:24;8.40;;;2.40;;
29854;SDS011;16733;48.738;9.106;2023-12-07T11:51:06;4.03;;;2.40;;
29854;SDS011;16733;48.738;9.106;2023-12-07T11:53:33;3.42;;;1.90;;
29854;SDS011;16733;48.738;9.106;2023-12-07T11:56:01;12.35;;;2.72;;
29854;SDS011;16733;48.738;9.106;2023-12-07T11:58:27;4.03;;;2.10;;
29854;SDS011;16733;48.738;9.106;2023-12-07T12:00:54;3.22;;;2.35;;
29854;SDS011;16733;48.738;9.106;2023-12-07T12:03:21;4.72;;;2.83;;
29854;SDS011;16733;48.738;9.106;2023-12-07T12:05:48;5.18;;;2.42;;
29854;SDS011;16733;48.738;9.106;2023-12-07T12:08:14;8.63;;;2.80;;
29854;SDS011;16733;48.738;9.106;2023-12-07T12:10:40;4.63;;;2.22;;
29854;SDS011;16733;48.738;9.106;2023-12-07T12:13:07;8.18;;;2.53;;
29854;SDS011;16733;48.738;9.106;2023-12-07T12:15:34;6.85;;;2.60;;
29854;SDS011;16733;48.738;9.106;2023-12-07T12:18:00;7.18;;;2.67;;
29854;SDS011;16733;48.738;9.106;2023-12-07T12:20:26;9.57;;;2.60;;
29854;SDS011;16733;48.738;9.106;2023-12-07T12:22:52;3.92;;;2.42;;
29854;SDS011;16733;48.738;9.106;2023-12-07T12:25:26;3.40;;;2.33;;
29854;SDS011;16733;48.738;9.106;2023-12-07T12:28:01;14.02;;;2.28;;
29854;SDS011;16733;48.738;9.106;2023-12-07T12:30:28;6.28;;;2.70;;
29854;SDS011;16733;48.738;9.106;2023-12-07T12:32:55;6.35;;;2.53;;
29854;SDS011;16733;48.738;9.106;2023-12-07T12:35:21;2.60;;;1.70;;
29854;SDS011;16733;48.738;9.106;2023-12-07T12:37:47;4.30;;;2.60;;
29854;SDS011;16733;48.738;9.106;2023-12-07T12:40:18;5.88;;;2.13;;
29854;SDS011;16733;48.738;9.106;2023-12-07T12:42:49;4.45;;;2.33;;
29854;SDS011;16733;48.738;9.106;2023-12-07T12:45:15;6.32;;;2.40;;
29854;SDS011;16733;48.738;9.106;2023-12-07T12:47:42;5.40;;;2.35;;
29854;SDS011;16733;48.738;9.106;2023-12-07T12:50:08;3.13;;;1.83;;
29854;SDS011;16733;48.738;9.106;2023-12-07T12:52:34;8.00;;;2.65;;
29854;SDS011;16733;48.738;9.106;2023-12-07T12:55:01;10.13;;;2.88;;
29854;SDS011;16733;48.738;9.106;2023-12-07T12:57:28;6.35;;;2.25;;
29854;SDS011;16733;48.738;9.106;2023-12-07T12:59:54;3.55;;;2.25;;
29854;SDS011;16733;48.738;9.106;2023-12-07T13:02:20;5.47;;;2.45;;
29854;SDS011;16733;48.738;9.106;2023-12-07T13:04:46;10.45;;;3.13;;
29854;SDS011;16733;48.738;9.106;2023-12-07T13:07:13;4.55;;;2.45;;
29854;SDS011;16733;48.738;9.106;2023-12-07T13:09:39;18.25;;;4.18;;
29854;SDS011;16733;48.738;9.106;2023-12-07T13:12:05;4.70;;;2.15;;
29854;SDS011;16733;48.738;9.106;2023-12-07T13:14:31;5.07;;;2.50;;
29854;SDS011;16733;48.738;9.106;2023-12-07T13:17:00;5.53;;;2.33;;
29854;SDS011;16733;48.738;9.106;2023-12-07T13:19:27;3.67;;;2.30;;
29854;SDS011;16733;48.738;9.106;2023-12-07T13:21:53;5.70;;;1.83;;
29854;SDS011;16733;48.738;9.106;2023-12-07T13:24:19;3.17;;;2.20;;
29854;SDS011;16733;48.738;9.106;2023-12-07T13:26:46;4.18;;;2.30;;
29854;SDS011;16733;48.738;9.106;2023-12-07T13:29:12;7.30;;;2.85;;
29854;SDS011;16733;48.738;9.106;2023-12-07T13:31:38;3.50;;;2.15;;
29854;SDS011;16733;48.738;9.106;2023-12-07T13:34:05;5.38;;;2.08;;
29854;SDS011;16733;48.738;9.106;2023-12-07T13:36:31;4.95;;;2.45;;
29854;SDS011;16733;48.738;9.106;2023-12-07T13:38:58;4.68;;;2.53;;
29854;SDS011;16733;48.738;9.106;2023-12-07T13:41:27;4.45;;;2.08;;
29854;SDS011;16733;48.738;9.106;2023-12-07T13:43:53;9.23;;;3.03;;
29854;SDS011;16733;48.738;9.106;2023-12-07T13:46:19;4.70;;;2.67;;
29854;SDS011;16733;48.738;9.106;2023-12-07T13:48:45;7.85;;;2.50;;
29854;SDS011;16733;48.738;9.106;2023-12-07T13:51:15;6.57;;;2.75;;
29854;SDS011;16733;48.738;9.106;2023-12-07T13:53:41;7.53;;;2.38;;
29854;SDS011;16733;48.738;9.106;2023-12-07T13:56:07;9.85;;;2.42;;
29854;SDS011;16733;48.738;9.106;2023-12-07T13:58:33;8.85;;;2.92;;
29854;SDS011;16733;48.738;9.106;2023-12-07T14:01:04;6.10;;;3.13;;
29854;SDS011;16733;48.738;9.106;2023-12-07T14:03:30;9.43;;;2.42;;
29854;SDS011;16733;48.738;9.106;2023-12-07T14:05:56;3.53;;;1.80;;
29854;SDS011;16733;48.738;9.106;2023-12-07T14:08:22;3.53;;;2.20;;
29854;SDS011;16733;48.738;9.106;2023-12-07T14:10:50;3.70;;;2.28;;
29854;SDS011;16733;48.738;9.106;2023-12-07T14:13:16;7.88;;;2.05;;
29854;SDS011;16733;48.738;9.106;2023-12-07T14:15:43;10.30;;;2.30;;
29854;SDS011;16733;48.738;9.106;2023-12-07T14:18:09;7.30;;;1.85;;
29854;SDS011;16733;48.738;9.106;2023-12-07T14:20:35;3.30;;;1.95;;
29854;SDS011;16733;48.738;9.106;2023-12-07T14:23:01;6.78;;;2.00;;
29854;SDS011;16733;48.738;9.106;2023-12-07T14:25:30;7.45;;;2.13;;
29854;SDS011;16733;48.738;9.106;2023-12-07T14:27:57;5.40;;;1.70;;
29854;SDS011;16733;48.738;9.106;2023-12-07T14:30:23;2.83;;;1.70;;
29854;SDS011;16733;48.738;9.106;2023-12-07T14:32:49;12.63;;;2.17;;
29854;SDS011;16733;48.738;9.106;2023-12-07T14:35:18;4.13;;;1.80;;
29854;SDS011;16733;48.738;9.106;2023-12-07T14:37:44;2.83;;;1.73;;
29854;SDS011;16733;48.738;9.106;2023-12-07T14:40:11;7.53;;;2.22;;
29854;SDS011;16733;48.738;9.106;2023-12-07T14:42:38;4.10;;;2.08;;
29854;SDS011;16733;48.738;9.106;2023-12-07T14:45:04;4.25;;;2.05;;
29854;SDS011;16733;48.738;9.106;2023-12-07T14:47:30;3.08;;;1.92;;
29854;SDS011;16733;48.738;9.106;2023-12-07T14:49:56;6.47;;;2.30;;